This is the latest recevied weather packets stored in our database for station/object WA6OOO. If no packets are shown the sender has not sent any weather packets the latest 10 day(s).
| Time | Temp. | Humidity | Pressure | Rain* | Wind** | Luminosity | Snow |
|---|---|---|---|---|---|---|---|
| 1777926520 | 18.33° C | 60% | 1018.7 hPa | 0 mm | - | 500 W/m² | - |
| 1777926217 | 18.89° C | 59% | 1018.8 hPa | 0 mm | - | 587 W/m² | - |
| 1777925913 | 18.33° C | 61% | 1018.7 hPa | 0 mm | - | 817 W/m² | - |
| 1777925611 | 18.89° C | 59% | 1018.7 hPa | 0 mm | - | 848 W/m² | - |
| 1777925308 | 18.33° C | 59% | 1018.7 hPa | 0 mm | - | 872 W/m² | - |
| 1777925005 | 18.33° C | 60% | 1018.8 hPa | 0 mm | - | 898 W/m² | - |
| 1777924701 | 18.33° C | 62% | 1018.6 hPa | 0 mm | - | 986 W/m² | - |
| 1777924397 | 18.89° C | 58% | 1018.7 hPa | 0 mm | - | 620 W/m² | - |
| 1777924094 | 18.89° C | 58% | 1018.7 hPa | 0 mm | - | 699 W/m² | - |
| 1777923790 | 18.33° C | 59% | 1018.6 hPa | 0 mm | - | 859 W/m² | - |
| 1777923486 | 18.33° C | 59% | 1018.5 hPa | 0 mm | - | 887 W/m² | - |
| 1777923184 | 18.89° C | 59% | 1018.6 hPa | 0 mm | - | 841 W/m² | - |
| 1777922882 | 17.78° C | 60% | 1018.5 hPa | 0 mm | - | 807 W/m² | - |
| 1777922580 | 18.33° C | 58% | 1018.7 hPa | 0 mm | - | 807 W/m² | - |
| 1777922278 | 18.33° C | 59% | 1018.7 hPa | 0 mm | - | 804 W/m² | - |
| 1777921975 | 18.33° C | 59% | 1018.7 hPa | 0 mm | - | 802 W/m² | - |
| 1777921670 | 18.89° C | 56% | 1018.5 hPa | 0 mm | - | 792 W/m² | - |
| 1777921367 | 18.89° C | 59% | 1018.6 hPa | 0 mm | - | 804 W/m² | - |
| 1777921064 | 18.33° C | 57% | 1018.6 hPa | 0 mm | - | 796 W/m² | - |
| 1777920760 | 18.89° C | 56% | 1018.7 hPa | 0 mm | - | 798 W/m² | - |
| 1777920457 | 18.89° C | 56% | 1018.6 hPa | 0 mm | - | 743 W/m² | - |
| 1777920153 | 18.89° C | 57% | 1018.7 hPa | 0 mm | - | 810 W/m² | - |
| 1777919849 | 18.89° C | 54% | 1018.5 hPa | 0 mm | - | 603 W/m² | - |
| 1777919546 | 18.89° C | 56% | 1018.5 hPa | 0 mm | - | 737 W/m² | - |
| 1777919244 | 18.33° C | 57% | 1018.6 hPa | 0 mm | - | 752 W/m² | - |
* Rain latest hour (hover to see other rain measurements)
** Current wind speed in m/s (hover to see current wind gust speed)